Hyalite Weather Station

This weather station provides temperature, wind speed, gust or max wind speed, and wind direction at 9982ft near the summit of Flanders Mountain. This data can be used with temperature and precipitation data from the Shower Falls SNOTEL site. If the data has not been updated recently you can view it directly on datagarrison.com

Elevation
9982ft
Jump to table bottom
Date Time Temperature
deg F
RH, % Wind Speed Wind Gust Wind Direction
01/27/21 21:00 9.7 84 22 39 SW - 225
01/27/21 20:00 9.5 83 19 32 SW - 226
01/27/21 19:00 10.1 78 15 30 SW - 227
01/27/21 18:00 11.6 73 23 41 SW - 234
01/27/21 17:00 11.9 74 37 54 SW - 234
01/27/21 16:00 13.0 76 37 55 SW - 233
01/27/21 15:00 10.4 80 36 52 SW - 234
01/27/21 14:00 11.1 78 31 52 SW - 229
01/27/21 13:00 10.3 80 31 51 SW - 220
01/27/21 12:00 9.3 80 30 48 SW - 219
01/27/21 11:00 8.7 78 26 47 SW - 218
01/27/21 10:00 7.9 81 31 52 SW - 218
01/27/21 09:00 6.8 78 32 51 SW - 218
01/27/21 08:00 6.0 79 25 51 SW - 208
01/27/21 07:00 4.6 80 31 50 SW - 209
01/27/21 06:00 5.5 70 30 47 SW - 212
01/27/21 05:00 5.6 66 33 51 SW - 219
01/27/21 04:00 3.9 75 33 45 SW - 222
01/27/21 03:00 3.8 77 34 49 SW - 223
01/27/21 02:00 4.3 76 34 51 SW - 225
01/27/21 01:00 5.0 75 31 47 SW - 230
01/27/21 00:00 5.2 74 26 41 SW - 226
01/26/21 23:00 5.7 74 23 38 SW - 227
01/26/21 22:00 5.8 75 21 31 SW - 233
01/26/21 21:00 5.4 80 18 31 SW - 232
01/26/21 20:00 6.0 78 14 24 SW - 230
01/26/21 19:00 6.1 75 12 23 SW - 233
01/26/21 18:00 6.5 77 11 17 SW - 232
01/26/21 17:00 7.6 80 7 14 SW - 227
01/26/21 16:00 9.4 75 8 15 SW - 241
01/26/21 15:00 10.0 72 9 16 SW - 240
01/26/21 14:00 8.9 74 8 15 SW - 240
01/26/21 13:00 10.2 65 8 18 SW - 243
01/26/21 12:00 8.1 53 10 16 SW - 241
01/26/21 11:00 6.3 66 9 14 SW - 220
01/26/21 10:00 4.7 74 11 16 SW - 218
01/26/21 09:00 4.5 78 10 16 SW - 232
01/26/21 08:00 3.8 79 12 18 SW - 229
01/26/21 07:00 4.2 80 11 20 SW - 208
01/26/21 06:00 3.7 82 9 24 S - 192
01/26/21 05:00 3.4 85 10 19 S - 201
01/26/21 04:00 5.8 77 9 16 SW - 205
01/26/21 03:00 5.4 74 8 18 S - 178
01/26/21 02:00 4.2 81 10 19 S - 195
01/26/21 01:00 6.0 70 13 19 S - 197
01/26/21 00:00 6.2 71 10 17 SW - 205
01/25/21 23:00 6.6 68 9 12 SW - 206
01/25/21 22:00 7.2 63 8 13 S - 178
01/25/21 21:00 6.5 68 7 12 SE - 128
01/25/21 20:00 6.4 69 5 15 SE - 145